Time;durP1;ratioP1;P1;durP2;ratioP2;P2;SDS_P1;SDS_P2;PMS_P1;PMS_P2;Temp;Humidity;BMP_temperature;BMP_pressure;BME280_temperature;BME280_humidity;BME280_pressure;Samples;Min_cycle;Max_cycle;Signal;HPM_P1;HPM_P2
2022/08/31 00:04:01;;;;;;;2.85;1.60;;;15.80;99.90;;;;;;5091266;28;20087;-53
2022/08/31 00:06:28;;;;;;;1.55;1.25;;;15.80;99.90;;;;;;5089837;28;20269;-53
2022/08/31 00:08:54;;;;;;;1.73;1.27;;;15.80;99.90;;;;;;5089774;28;20024;-53
2022/08/31 00:11:26;;;;;;;1.67;1.35;;;15.80;99.90;;;;;;5088995;28;20021;-53
2022/08/31 00:13:54;;;;;;;1.33;1.15;;;15.90;99.90;;;;;;5090638;28;20020;-53
2022/08/31 00:16:19;;;;;;;2.67;1.60;;;15.80;99.90;;;;;;5090834;28;20020;-53
2022/08/31 00:18:45;;;;;;;1.85;1.25;;;15.80;99.90;;;;;;5089872;28;20051;-53
2022/08/31 00:21:11;;;;;;;1.63;1.10;;;15.80;99.90;;;;;;5089024;28;20028;-53
2022/08/31 00:23:37;;;;;;;2.75;1.77;;;15.80;99.90;;;;;;5090746;28;20028;-53
2022/08/31 00:26:02;;;;;;;2.85;1.35;;;15.80;99.90;;;;;;5090941;28;20530;-53
2022/08/31 00:28:28;;;;;;;1.35;1.15;;;15.80;99.90;;;;;;5084824;28;20051;-53
2022/08/31 00:30:53;;;;;;;1.85;1.42;;;15.80;99.90;;;;;;5084148;28;20028;-52
2022/08/31 00:33:19;;;;;;;1.83;1.45;;;15.70;99.90;;;;;;5090516;28;20103;-53
2022/08/31 00:35:44;;;;;;;2.08;1.67;;;15.70;99.90;;;;;;5090450;28;20468;-53
2022/08/31 00:38:11;;;;;;;1.15;1.00;;;15.70;99.90;;;;;;5090615;28;20132;-53
2022/08/31 00:40:38;;;;;;;3.35;1.27;;;15.70;99.90;;;;;;5090375;28;20031;-53
2022/08/31 00:43:03;;;;;;;1.40;1.10;;;15.70;99.90;;;;;;5090109;28;20103;-52
2022/08/31 00:45:29;;;;;;;2.58;1.35;;;15.70;99.90;;;;;;5089268;28;20480;-53
2022/08/31 00:47:55;;;;;;;2.63;1.55;;;15.70;99.90;;;;;;5090156;28;20093;-52
2022/08/31 00:50:23;;;;;;;2.13;1.52;;;15.70;99.90;;;;;;5090130;28;20373;-53
2022/08/31 00:52:58;;;;;;;1.67;1.20;;;15.70;99.90;;;;;;5089761;28;20020;-53
2022/08/31 00:55:30;;;;;;;6.30;1.30;;;15.70;99.90;;;;;;5090397;28;20051;-53
2022/08/31 00:58:00;;;;;;;1.90;1.25;;;15.70;99.90;;;;;;5085660;28;20018;-53
2022/08/31 01:00:26;;;;;;;1.58;1.17;;;15.70;99.90;;;;;;5081641;28;20020;-53
2022/08/31 01:02:54;;;;;;;1.60;1.10;;;15.70;99.90;;;;;;5089514;28;20341;-53
2022/08/31 01:05:19;;;;;;;3.60;1.10;;;15.70;99.90;;;;;;5090124;28;20096;-53
2022/08/31 01:07:46;;;;;;;1.85;1.20;;;15.70;99.90;;;;;;5089854;28;20115;-53
2022/08/31 01:10:14;;;;;;;2.05;1.30;;;15.70;99.90;;;;;;5089775;28;20024;-53
2022/08/31 01:12:43;;;;;;;1.50;1.30;;;15.70;99.90;;;;;;5088970;28;20016;-53
2022/08/31 01:15:10;;;;;;;3.03;1.10;;;15.60;99.90;;;;;;5089634;28;20032;-53
2022/08/31 01:17:37;;;;;;;3.47;1.10;;;15.70;99.90;;;;;;5089879;28;20103;-53
2022/08/31 01:20:24;;;;;;;2.85;1.40;;;15.70;99.90;;;;;;5089879;28;20483;-54
2022/08/31 01:23:11;;;;;;;1.73;1.35;;;15.70;99.90;;;;;;5089280;28;20023;-53
2022/08/31 01:25:40;;;;;;;1.25;1.10;;;15.70;99.90;;;;;;5089526;28;20028;-53
2022/08/31 01:28:07;;;;;;;4.68;1.08;;;15.60;99.90;;;;;;5088984;28;20078;-53
2022/08/31 01:30:33;;;;;;;1.80;1.00;;;15.60;99.90;;;;;;5080379;28;20024;-53
2022/08/31 01:32:58;;;;;;;2.50;1.63;;;15.50;99.90;;;;;;5089292;28;20023;-53
2022/08/31 01:35:24;;;;;;;1.92;1.00;;;15.50;99.90;;;;;;5089623;28;20066;-53
2022/08/31 01:37:51;;;;;;;1.35;1.10;;;15.50;99.90;;;;;;5089350;28;20386;-53
2022/08/31 01:40:16;;;;;;;1.90;1.17;;;15.50;99.90;;;;;;5089386;28;20032;-53
2022/08/31 01:42:42;;;;;;;2.40;1.10;;;15.50;99.90;;;;;;5088402;28;20030;-53
2022/08/31 01:45:08;;;;;;;2.20;1.30;;;15.50;99.90;;;;;;5089195;28;20042;-53
2022/08/31 01:47:34;;;;;;;2.75;1.38;;;15.40;99.90;;;;;;5089115;28;20517;-55
2022/08/31 01:49:59;;;;;;;2.58;1.30;;;15.40;99.90;;;;;;5088936;28;20115;-54
2022/08/31 01:52:26;;;;;;;2.45;1.35;;;15.30;99.90;;;;;;5088501;28;20069;-55
2022/08/31 01:54:52;;;;;;;1.52;1.40;;;15.30;99.90;;;;;;5089042;28;20567;-55
2022/08/31 01:57:17;;;;;;;1.67;1.38;;;15.30;99.90;;;;;;5086256;28;20024;-55
2022/08/31 01:59:43;;;;;;;1.63;1.20;;;15.30;99.90;;;;;;5080503;28;20059;-53
2022/08/31 02:02:08;;;;;;;3.70;1.55;;;15.20;99.90;;;;;;5088350;28;20039;-53
2022/08/31 02:04:34;;;;;;;1.27;1.10;;;15.20;99.90;;;;;;5088963;28;20528;-53
2022/08/31 02:07:00;;;;;;;1.42;1.10;;;15.20;99.90;;;;;;5087451;28;20031;-53
2022/08/31 02:09:27;;;;;;;1.33;1.02;;;15.10;99.90;;;;;;5088735;28;20093;-53
2022/08/31 02:11:53;;;;;;;3.63;1.40;;;15.10;99.90;;;;;;5088190;28;20024;-53
2022/08/31 02:14:19;;;;;;;3.55;1.10;;;15.10;99.90;;;;;;5087305;28;20428;-53
2022/08/31 02:16:46;;;;;;;3.50;1.35;;;15.00;99.90;;;;;;5087325;28;20026;-53
2022/08/31 02:19:11;;;;;;;4.68;1.40;;;15.00;99.90;;;;;;5077175;28;20085;-53
2022/08/31 02:21:37;;;;;;;3.60;1.23;;;15.00;99.90;;;;;;5088059;28;20031;-53
2022/08/31 02:24:05;;;;;;;2.15;1.30;;;15.00;99.90;;;;;;5088676;28;20044;-54
2022/08/31 02:26:31;;;;;;;1.10;0.85;;;14.90;99.90;;;;;;5088610;28;20028;-53
2022/08/31 02:28:56;;;;;;;1.60;1.10;;;15.00;99.90;;;;;;5088308;28;20077;-54
2022/08/31 02:31:22;;;;;;;2.15;1.30;;;14.90;99.90;;;;;;5086581;28;20028;-54
2022/08/31 02:33:47;;;;;;;1.55;1.00;;;14.90;99.90;;;;;;5088980;28;20028;-53
2022/08/31 02:36:13;;;;;;;1.30;1.20;;;14.80;99.90;;;;;;5088512;28;20020;-53
2022/08/31 02:38:39;;;;;;;2.90;1.13;;;14.80;99.90;;;;;;5087175;28;20036;-55
2022/08/31 02:41:05;;;;;;;3.13;1.50;;;14.80;99.90;;;;;;5087909;28;20035;-53
2022/08/31 02:43:31;;;;;;;1.95;1.20;;;14.80;99.90;;;;;;5092345;28;20020;-53
2022/08/31 02:45:57;;;;;;;2.60;1.70;;;14.80;99.90;;;;;;5092531;28;20114;-53
2022/08/31 02:48:22;;;;;;;1.45;1.23;;;14.80;99.90;;;;;;5081977;28;20369;-53
2022/08/31 02:50:50;;;;;;;2.25;1.08;;;14.70;99.90;;;;;;5073420;28;20300;-53
2022/08/31 02:53:18;;;;;;;1.45;1.30;;;14.70;99.90;;;;;;5071905;28;20048;-53
2022/08/31 02:55:43;;;;;;;2.38;1.73;;;14.70;99.90;;;;;;5074754;28;20026;-53
2022/08/31 02:58:11;;;;;;;1.92;1.55;;;14.70;99.90;;;;;;5073468;28;20024;-53
2022/08/31 03:00:37;;;;;;;5.80;1.55;;;14.70;99.90;;;;;;5070227;28;20066;-53
2022/08/31 03:03:03;;;;;;;2.03;1.55;;;14.70;99.90;;;;;;5071886;28;20024;-53
2022/08/31 03:05:29;;;;;;;1.30;1.05;;;14.70;99.90;;;;;;5072556;28;20036;-55
2022/08/31 03:07:55;;;;;;;3.25;1.38;;;14.70;99.90;;;;;;5072480;28;20418;-53
2022/08/31 03:10:23;;;;;;;2.28;1.30;;;14.70;99.90;;;;;;5070748;28;20036;-53
2022/08/31 03:12:50;;;;;;;2.63;1.27;;;14.70;99.90;;;;;;5069552;28;20025;-53
2022/08/31 03:15:18;;;;;;;2.65;1.20;;;14.70;99.90;;;;;;5071503;28;20031;-53
2022/08/31 03:17:43;;;;;;;2.45;1.30;;;14.60;99.90;;;;;;5071469;28;20040;-53
2022/08/31 03:20:10;;;;;;;2.17;1.55;;;14.60;99.90;;;;;;5071743;28;20479;-54
2022/08/31 03:22:36;;;;;;;2.10;1.52;;;14.60;99.90;;;;;;5071561;28;20032;-53
2022/08/31 03:25:03;;;;;;;1.42;1.30;;;14.60;99.90;;;;;;5071772;28;20054;-54
2022/08/31 03:27:29;;;;;;;1.83;1.15;;;14.50;99.90;;;;;;5071542;28;20024;-54
2022/08/31 03:29:55;;;;;;;1.77;1.25;;;14.50;99.90;;;;;;5071067;28;20028;-53
2022/08/31 03:32:21;;;;;;;1.45;1.30;;;14.40;99.90;;;;;;5070448;28;20106;-53
2022/08/31 03:34:46;;;;;;;1.88;1.30;;;14.40;99.90;;;;;;5071406;28;20024;-54
2022/08/31 03:37:12;;;;;;;1.52;1.30;;;14.40;99.90;;;;;;5071203;28;20479;-54
2022/08/31 03:39:38;;;;;;;2.67;1.40;;;14.30;99.90;;;;;;5071125;28;20484;-53
2022/08/31 03:42:05;;;;;;;1.65;1.20;;;14.20;99.90;;;;;;5069109;28;20038;-53
2022/08/31 03:44:32;;;;;;;2.97;1.13;;;14.20;99.90;;;;;;5071228;28;20365;-55
2022/08/31 03:46:58;;;;;;;1.33;1.20;;;14.20;99.90;;;;;;5071117;28;20032;-53
2022/08/31 03:49:24;;;;;;;3.10;1.33;;;14.10;99.90;;;;;;5070915;28;20028;-55
2022/08/31 03:51:51;;;;;;;1.52;1.20;;;14.00;99.90;;;;;;5070795;28;20048;-56
2022/08/31 03:54:17;;;;;;;3.28;1.33;;;14.00;99.90;;;;;;5070083;28;20472;-58
2022/08/31 03:56:43;;;;;;;3.08;1.60;;;14.00;99.90;;;;;;5071034;28;20024;-54
2022/08/31 03:59:08;;;;;;;3.22;1.58;;;13.90;99.90;;;;;;5070940;28;20028;-53
2022/08/31 04:01:35;;;;;;;2.30;1.50;;;13.80;99.90;;;;;;5070321;28;20024;-53
2022/08/31 04:04:01;;;;;;;4.50;1.58;;;13.80;99.90;;;;;;5070979;28;20048;-54
2022/08/31 04:06:26;;;;;;;1.42;1.33;;;13.80;99.90;;;;;;5070895;28;20063;-53
2022/08/31 04:08:52;;;;;;;3.15;1.50;;;13.70;99.90;;;;;;5070899;28;20025;-53
2022/08/31 04:11:18;;;;;;;4.50;1.52;;;13.70;99.90;;;;;;5070037;28;20027;-53
2022/08/31 04:13:45;;;;;;;1.42;1.30;;;13.60;99.90;;;;;;5069420;28;20024;-53
2022/08/31 04:16:12;;;;;;;4.63;1.40;;;13.60;99.90;;;;;;5070480;28;20021;-53
2022/08/31 04:18:40;;;;;;;2.90;1.65;;;13.50;99.90;;;;;;5070666;28;20036;-53
2022/08/31 04:21:19;;;;;;;6.10;1.55;;;13.50;99.90;;;;;;5070219;28;20495;-53
2022/08/31 04:23:46;;;;;;;3.70;1.50;;;13.50;99.90;;;;;;5070662;28;20047;-53
2022/08/31 04:26:18;;;;;;;3.53;1.70;;;13.50;99.90;;;;;;5070460;28;20104;-53
2022/08/31 04:28:43;;;;;;;4.78;1.80;;;13.50;99.90;;;;;;5070255;28;20055;-53
2022/08/31 04:31:09;;;;;;;1.67;1.38;;;13.40;99.90;;;;;;5069754;28;20534;-52
2022/08/31 04:33:38;;;;;;;4.82;1.80;;;13.40;99.90;;;;;;5070466;28;20032;-53
2022/08/31 04:36:10;;;;;;;2.22;1.58;;;13.30;99.90;;;;;;5070371;28;20074;-53
2022/08/31 04:38:35;;;;;;;3.28;1.38;;;13.30;99.90;;;;;;5068975;28;20052;-53
2022/08/31 04:41:05;;;;;;;5.10;1.75;;;13.30;99.90;;;;;;5069951;28;20117;-53
2022/08/31 04:43:31;;;;;;;2.17;1.60;;;13.20;99.90;;;;;;5070483;28;20043;-53
2022/08/31 04:45:57;;;;;;;3.45;1.73;;;13.20;99.90;;;;;;5070013;28;20037;-53
2022/08/31 04:48:22;;;;;;;2.50;1.40;;;13.20;99.90;;;;;;5069979;28;20043;-53
2022/08/31 04:50:51;;;;;;;1.95;1.65;;;13.20;99.90;;;;;;5069229;28;20032;-53
2022/08/31 04:53:16;;;;;;;4.03;1.55;;;13.20;99.90;;;;;;5069860;28;20028;-53
2022/08/31 04:55:43;;;;;;;2.05;1.50;;;13.20;99.90;;;;;;5069923;28;20426;-53
2022/08/31 04:58:10;;;;;;;5.57;2.03;;;13.20;99.90;;;;;;5070047;28;20047;-53
2022/08/31 05:00:37;;;;;;;3.70;1.52;;;13.20;99.90;;;;;;5069583;28;20020;-53
2022/08/31 05:03:03;;;;;;;2.47;1.55;;;13.20;99.90;;;;;;5069810;28;20074;-53
2022/08/31 05:05:28;;;;;;;3.40;1.80;;;13.20;99.90;;;;;;5069783;28;20024;-53
2022/08/31 05:07:53;;;;;;;3.67;1.77;;;13.20;99.90;;;;;;5069649;28;20024;-53
2022/08/31 05:10:20;;;;;;;2.28;1.75;;;13.20;99.90;;;;;;5069571;28;20076;-53
2022/08/31 05:12:45;;;;;;;6.50;1.90;;;13.30;99.90;;;;;;5069192;28;20024;-53
2022/08/31 05:15:11;;;;;;;3.15;1.90;;;13.30;99.90;;;;;;5069857;28;20028;-53
2022/08/31 05:17:37;;;;;;;3.17;1.92;;;13.30;99.90;;;;;;5069495;28;20033;-53
2022/08/31 05:20:04;;;;;;;4.65;2.03;;;13.30;99.90;;;;;;5069590;28;20082;-53
2022/08/31 05:22:30;;;;;;;3.70;2.10;;;13.30;99.90;;;;;;5069135;28;20023;-53
2022/08/31 05:24:55;;;;;;;2.13;1.35;;;13.30;99.90;;;;;;5069927;28;20531;-53
2022/08/31 05:27:21;;;;;;;3.65;1.90;;;13.30;99.90;;;;;;5069503;28;20078;-53
2022/08/31 05:29:46;;;;;;;7.05;2.15;;;13.40;99.90;;;;;;5069430;28;20024;-52
2022/08/31 05:32:12;;;;;;;4.07;1.73;;;13.40;99.90;;;;;;5068679;28;20096;-52
2022/08/31 05:34:37;;;;;;;3.17;1.80;;;13.40;99.90;;;;;;5069500;28;20153;-53
2022/08/31 05:37:03;;;;;;;3.75;1.80;;;13.40;99.90;;;;;;5069218;28;20023;-53
2022/08/31 05:39:30;;;;;;;3.90;2.00;;;13.40;99.90;;;;;;5068894;28;20031;-53
2022/08/31 05:41:56;;;;;;;5.50;2.55;;;13.50;99.90;;;;;;5068297;28;20383;-53
2022/08/31 05:44:22;;;;;;;5.38;2.30;;;13.50;99.90;;;;;;5069007;28;20029;-53
2022/08/31 05:46:48;;;;;;;7.75;1.90;;;13.50;99.90;;;;;;5069160;28;20106;-53
2022/08/31 05:49:15;;;;;;;3.10;1.90;;;13.50;99.90;;;;;;5068839;28;20024;-53
2022/08/31 05:51:40;;;;;;;5.05;1.80;;;13.60;99.90;;;;;;5068294;28;20459;-53
2022/08/31 05:54:07;;;;;;;2.40;1.75;;;13.60;99.90;;;;;;5068855;28;20108;-53
2022/08/31 05:56:33;;;;;;;3.40;1.83;;;13.60;99.90;;;;;;5069035;28;20018;-53
2022/08/31 05:58:59;;;;;;;6.57;2.28;;;13.60;99.90;;;;;;5067617;28;20415;-53
2022/08/31 06:01:31;;;;;;;2.30;1.83;;;13.70;99.90;;;;;;5066818;28;20039;-53
2022/08/31 06:03:58;;;;;;;5.25;1.80;;;13.80;99.90;;;;;;5067521;28;20025;-53
2022/08/31 06:06:24;;;;;;;2.40;1.70;;;13.80;99.90;;;;;;5068716;28;20108;-54
2022/08/31 06:08:51;;;;;;;3.33;1.98;;;13.80;99.90;;;;;;5068575;28;20499;-51
2022/08/31 06:11:19;;;;;;;2.40;1.75;;;13.90;99.90;;;;;;5068081;28;20025;-51
2022/08/31 06:13:49;;;;;;;6.30;1.63;;;13.90;99.90;;;;;;5068628;28;20112;-51
2022/08/31 06:16:16;;;;;;;6.72;1.95;;;14.00;99.90;;;;;;5068251;28;20638;-53
2022/08/31 06:18:48;;;;;;;4.20;1.90;;;14.00;99.90;;;;;;5068689;28;20047;-53
2022/08/31 06:21:14;;;;;;;3.78;2.17;;;14.10;99.90;;;;;;5068018;28;20024;-53
2022/08/31 06:23:44;;;;;;;4.55;2.00;;;14.10;99.90;;;;;;5068577;28;20464;-54
2022/08/31 06:26:14;;;;;;;2.75;1.70;;;14.20;99.90;;;;;;5068785;28;20381;-53
2022/08/31 06:28:41;;;;;;;6.03;1.92;;;14.30;99.90;;;;;;5068576;28;20023;-53
2022/08/31 06:31:32;;;;;;;1.88;1.75;;;14.30;99.90;;;;;;5067646;28;20029;-55
2022/08/31 06:33:58;;;;;;;;;;;14.30;99.90;;;;;;5068878;28;20392;-53
2022/08/31 06:36:26;;;;;;;3.92;2.00;;;14.30;99.90;;;;;;5068359;28;19987;-53
2022/08/31 06:38:52;;;;;;;4.60;2.10;;;14.40;99.90;;;;;;5068236;28;20454;-54
2022/08/31 06:41:25;;;;;;;3.95;2.17;;;14.50;99.90;;;;;;5067758;28;20025;-53
2022/08/31 06:43:51;;;;;;;2.45;1.52;;;14.50;99.90;;;;;;5068332;28;20035;-51
2022/08/31 06:46:18;;;;;;;3.05;1.50;;;14.60;99.90;;;;;;5068261;28;20028;-53
2022/08/31 06:48:44;;;;;;;4.22;1.73;;;14.70;99.90;;;;;;5068254;28;20033;-54
2022/08/31 06:51:10;;;;;;;4.60;2.25;;;14.80;99.90;;;;;;5067439;28;20059;-54
2022/08/31 06:53:41;;;;;;;5.57;1.70;;;14.90;99.90;;;;;;5068285;28;20024;-53
2022/08/31 06:56:09;;;;;;;2.40;1.75;;;14.90;99.90;;;;;;5068661;28;20038;-51
2022/08/31 06:58:35;;;;;;;2.15;1.60;;;15.00;99.90;;;;;;5068444;28;20028;-51
2022/08/31 07:01:16;;;;;;;4.05;1.73;;;15.20;99.90;;;;;;5067466;28;20035;-51
2022/08/31 07:03:43;;;;;;;4.97;1.83;;;15.20;99.90;;;;;;5068220;28;20055;-54
2022/08/31 07:06:21;;;;;;;2.90;1.60;;;15.30;99.90;;;;;;5068235;28;20029;-54
2022/08/31 07:08:54;;;;;;;4.22;1.77;;;15.30;99.90;;;;;;5068157;28;20033;-53
2022/08/31 07:11:32;;;;;;;6.03;1.90;;;15.40;99.90;;;;;;5067418;28;20020;-52
2022/08/31 07:13:57;;;;;;;3.38;1.70;;;15.60;99.90;;;;;;5068127;28;20025;-52
2022/08/31 07:16:25;;;;;;;6.63;1.85;;;15.70;99.90;;;;;;5067957;28;20035;-52
2022/08/31 07:18:53;;;;;;;5.90;2.00;;;15.80;99.90;;;;;;5067780;28;20032;-52
2022/08/31 07:21:25;;;;;;;4.68;1.48;;;16.00;99.90;;;;;;5067398;28;20028;-52
2022/08/31 07:23:52;;;;;;;5.05;2.10;;;16.00;99.90;;;;;;5067912;28;20112;-53
2022/08/31 07:26:24;;;;;;;2.20;1.50;;;16.10;99.90;;;;;;5067804;28;20451;-52
2022/08/31 07:28:52;;;;;;;3.75;1.70;;;16.20;99.90;;;;;;5070688;28;20044;-53
2022/08/31 07:31:21;;;;;;;2.33;1.60;;;16.40;99.90;;;;;;5071116;28;20028;-53
2022/08/31 07:33:54;;;;;;;3.88;1.92;;;16.50;99.90;;;;;;5071636;28;20020;-53
2022/08/31 07:36:21;;;;;;;4.22;1.65;;;16.60;99.90;;;;;;5070247;28;20392;-53
2022/08/31 07:44:23;;;;;;;3.97;1.65;;;17.40;99.90;;;;;;5071903;28;20112;-53
2022/08/31 07:46:51;;;;;;;2.90;1.40;;;17.90;99.90;;;;;;5071539;28;20103;-53
2022/08/31 07:49:17;;;;;;;3.95;1.52;;;18.00;99.90;;;;;;5070164;28;20028;-54
2022/08/31 07:51:49;;;;;;;3.60;1.42;;;18.30;99.90;;;;;;5070601;28;20013;-54
2022/08/31 07:54:19;;;;;;;3.17;1.27;;;18.40;99.90;;;;;;5071172;28;20522;-53
2022/08/31 07:56:45;;;;;;;3.58;1.75;;;18.80;99.90;;;;;;5071370;28;20024;-53
2022/08/31 07:59:13;;;;;;;2.00;1.40;;;19.10;99.90;;;;;;5069989;28;20031;-54
2022/08/31 08:01:40;;;;;;;4.50;1.50;;;19.60;99.90;;;;;;5070317;28;20079;-54
2022/08/31 08:04:06;;;;;;;4.63;1.60;;;20.10;99.90;;;;;;5071033;28;20020;-54
2022/08/31 08:06:32;;;;;;;4.85;1.83;;;20.40;99.90;;;;;;5070905;28;20437;-54
2022/08/31 08:09:05;;;;;;;2.50;1.58;;;20.90;99.90;;;;;;5070884;28;20021;-56
2022/08/31 08:11:31;;;;;;;2.58;1.35;;;21.50;99.20;;;;;;5070139;28;20090;-55
2022/08/31 08:13:57;;;;;;;3.53;1.33;;;22.10;98.00;;;;;;5069029;28;20025;-55
2022/08/31 08:16:23;;;;;;;4.07;1.20;;;23.00;96.00;;;;;;5070877;28;20115;-55
2022/08/31 08:18:49;;;;;;;4.53;1.38;;;23.40;95.40;;;;;;5070811;28;20087;-55
2022/08/31 08:21:14;;;;;;;1.92;1.20;;;23.80;94.00;;;;;;5070227;28;20036;-56
2022/08/31 08:23:39;;;;;;;2.03;1.25;;;24.30;92.50;;;;;;5070599;28;20044;-53
2022/08/31 08:26:08;;;;;;;5.05;1.10;;;24.90;91.10;;;;;;5070401;28;20094;-54
2022/08/31 08:28:34;;;;;;;2.25;1.38;;;25.50;90.30;;;;;;5070452;28;20025;-54
2022/08/31 08:31:02;;;;;;;2.45;1.30;;;25.80;87.50;;;;;;5070033;28;20027;-54
2022/08/31 08:33:29;;;;;;;1.35;1.02;;;25.80;86.00;;;;;;5070522;28;20020;-54
2022/08/31 08:36:01;;;;;;;2.08;1.00;;;26.00;87.00;;;;;;5069248;28;20035;-55
2022/08/31 08:38:31;;;;;;;2.55;1.08;;;26.70;83.50;;;;;;5070604;28;20475;-54
2022/08/31 08:40:58;;;;;;;2.13;1.60;;;27.00;82.10;;;;;;5069227;28;20025;-54
2022/08/31 08:43:31;;;;;;;2.47;1.30;;;26.80;79.90;;;;;;5070678;28;20029;-55
2022/08/31 08:45:57;;;;;;;3.20;1.25;;;27.40;78.50;;;;;;5070285;28;20032;-55
2022/08/31 08:48:26;;;;;;;2.50;1.10;;;27.20;77.00;;;;;;5070118;28;20324;-54
2022/08/31 08:50:52;;;;;;;2.33;1.38;;;27.60;77.80;;;;;;5069626;28;20028;-55
2022/08/31 08:53:23;;;;;;;2.60;1.20;;;28.80;74.00;;;;;;5070131;28;20069;-54
2022/08/31 08:55:50;;;;;;;3.33;1.40;;;28.60;72.10;;;;;;5070481;28;20020;-54
2022/08/31 08:58:18;;;;;;;5.35;1.30;;;28.60;72.10;;;;;;5070077;28;20048;-55
2022/08/31 09:00:48;;;;;;;1.50;1.15;;;28.30;71.40;;;;;;5069485;28;20159;-54
2022/08/31 09:03:59;;;;;;;3.60;1.13;;;28.50;72.20;;;;;;5070102;28;20028;-54
2022/08/31 09:06:53;;;;;;;1.70;1.20;;;28.40;71.30;;;;;;5070182;28;20028;-55
2022/08/31 09:09:45;;;;;;;1.48;1.13;;;28.80;70.70;;;;;;5069874;28;20035;-54
2022/08/31 09:12:25;;;;;;;3.28;1.60;;;29.70;67.20;;;;;;5069139;28;20411;-55
2022/08/31 09:14:57;;;;;;;3.65;1.63;;;30.00;66.40;;;;;;5069636;28;20041;-55
2022/08/31 09:17:50;;;;;;;2.65;1.20;;;29.70;65.80;;;;;;5069791;28;20052;-53
2022/08/31 09:20:16;;;;;;;3.78;1.27;;;29.00;66.70;;;;;;5069307;28;20032;-54
2022/08/31 09:22:54;;;;;;;3.13;1.15;;;28.20;66.70;;;;;;5068726;28;20029;-56
2022/08/31 09:25:28;;;;;;;3.22;1.17;;;28.30;66.80;;;;;;5069544;28;20118;-55
2022/08/31 09:27:56;;;;;;;2.20;1.02;;;28.40;66.90;;;;;;5069497;28;20039;-56
2022/08/31 09:30:39;;;;;;;1.67;1.23;;;29.10;64.60;;;;;;5069261;28;20025;-55
2022/08/31 09:33:14;;;;;;;3.15;1.23;;;29.60;63.00;;;;;;5069439;28;20487;-55
2022/08/31 09:35:40;;;;;;;1.50;0.98;;;29.60;62.90;;;;;;5069261;28;20032;-56
2022/08/31 09:38:11;;;;;;;2.90;1.65;;;30.20;62.60;;;;;;5067930;28;20017;-56
2022/08/31 09:40:51;;;;;;;2.22;1.42;;;31.00;61.10;;;;;;5067404;28;20025;-55
2022/08/31 09:43:23;;;;;;;3.80;1.38;;;31.40;58.40;;;;;;5069033;28;20032;-54
2022/08/31 09:46:02;;;;;;;3.60;1.65;;;31.10;58.80;;;;;;5068926;28;20430;-55
2022/08/31 09:48:38;;;;;;;2.22;1.20;;;31.80;57.70;;;;;;5069038;28;20150;-55
2022/08/31 09:51:05;;;;;;;2.03;1.60;;;32.40;57.20;;;;;;5067564;28;20078;-55
2022/08/31 09:56:23;;;;;;;2.80;1.13;;;32.40;54.60;;;;;;5068994;28;20031;-56
2022/08/31 09:59:01;;;;;;;2.63;1.20;;;32.80;53.50;;;;;;5068691;28;20041;-56
2022/08/31 10:01:43;;;;;;;2.17;1.17;;;33.70;52.70;;;;;;5068193;28;20170;-56
2022/08/31 10:04:17;;;;;;;3.10;1.08;;;33.50;52.20;;;;;;5067329;28;20111;-55
2022/08/31 10:07:13;;;;;;;3.70;1.30;;;33.60;52.50;;;;;;5068620;28;20395;-56
2022/08/31 10:09:50;;;;;;;3.05;1.20;;;33.60;51.20;;;;;;5068563;28;20182;-55
2022/08/31 10:12:36;;;;;;;1.35;0.85;;;33.80;51.60;;;;;;5066918;28;20017;-54
2022/08/31 10:15:24;;;;;;;2.58;0.93;;;33.60;49.60;;;;;;5068820;28;20029;-55
2022/08/31 10:18:01;;;;;;;1.30;0.77;;;33.70;48.80;;;;;;5068676;28;20044;-54
2022/08/31 10:20:34;;;;;;;3.17;1.33;;;33.40;50.60;;;;;;5068396;28;20247;-55
2022/08/31 10:23:17;;;;;;;2.05;1.27;;;34.00;49.80;;;;;;5068327;28;20040;-55
2022/08/31 10:25:53;;;;;;;2.22;1.10;;;33.70;50.10;;;;;;5068950;28;20043;-55
2022/08/31 10:28:40;;;;;;;3.60;1.13;;;34.60;48.50;;;;;;5068473;28;20634;-55
2022/08/31 10:31:19;;;;;;;5.50;0.95;;;34.70;47.80;;;;;;5068069;28;20033;-54
2022/08/31 10:36:59;;;;;;;2.08;0.88;;;35.00;47.90;;;;;;5068400;28;20162;-56
2022/08/31 10:39:41;;;;;;;3.45;1.00;;;35.20;48.60;;;;;;5068297;28;20395;-55
2022/08/31 10:42:14;;;;;;;2.63;0.98;;;35.20;47.50;;;;;;5067881;28;20032;-56
2022/08/31 10:44:55;;;;;;;1.90;1.05;;;35.20;46.90;;;;;;5068313;28;20031;-55
2022/08/31 10:47:22;;;;;;;1.73;1.00;;;35.60;46.20;;;;;;5068315;28;20031;-56
2022/08/31 10:49:51;;;;;;;2.67;0.90;;;35.50;45.60;;;;;;5068157;28;20017;-55
2022/08/31 10:52:28;;;;;;;5.43;1.27;;;34.50;45.50;;;;;;5067665;28;20021;-55
2022/08/31 10:55:08;;;;;;;1.48;0.90;;;34.30;46.10;;;;;;5068657;28;20032;-55
2022/08/31 10:57:44;;;;;;;2.10;0.90;;;34.50;46.20;;;;;;5068373;28;20044;-56
2022/08/31 11:03:12;;;;;;;2.55;1.08;;;35.20;44.70;;;;;;5069736;28;20081;-56
2022/08/31 11:06:05;;;;;;;1.35;1.13;;;35.70;43.70;;;;;;5072309;28;20039;-55
2022/08/31 11:08:50;;;;;;;1.83;1.15;;;35.10;44.70;;;;;;5050075;28;20044;-56
2022/08/31 11:11:25;;;;;;;1.88;1.05;;;35.50;44.30;;;;;;5071624;28;20055;-56
2022/08/31 11:14:28;;;;;;;3.83;0.93;;;35.20;44.20;;;;;;5071882;28;20024;-55
2022/08/31 11:17:25;;;;;;;1.25;0.80;;;35.10;44.10;;;;;;5072294;28;20614;-55
2022/08/31 11:19:50;;;;;;;2.17;0.90;;;35.20;44.30;;;;;;5071813;28;20494;-55
2022/08/31 11:22:27;;;;;;;1.35;0.80;;;35.40;43.40;;;;;;5071209;28;20024;-55
2022/08/31 11:25:02;;;;;;;2.35;1.10;;;35.40;44.10;;;;;;5069833;28;20519;-56
2022/08/31 11:27:37;;;;;;;4.63;1.13;;;36.20;42.50;;;;;;5068999;28;20094;-55
2022/08/31 11:30:22;;;;;;;1.98;1.02;;;36.20;41.90;;;;;;5071446;28;20021;-55
2022/08/31 11:33:04;;;;;;;3.05;1.17;;;35.30;43.10;;;;;;5070987;28;20036;-56
2022/08/31 11:35:59;;;;;;;1.67;1.02;;;34.00;45.70;;;;;;5071664;28;20511;-55
2022/08/31 11:38:51;;;;;;;2.83;0.70;;;33.90;46.80;;;;;;5071614;28;20031;-56
2022/08/31 11:41:43;;;;;;;4.50;0.90;;;34.60;43.90;;;;;;5070879;28;20029;-56
2022/08/31 11:44:30;;;;;;;1.58;0.88;;;34.00;44.40;;;;;;5071242;28;20466;-50
2022/08/31 11:47:25;;;;;;;3.22;1.48;;;33.90;44.20;;;;;;5071446;28;20024;-47
2022/08/31 11:49:54;;;;;;;0.90;0.90;;;33.30;44.70;;;;;;5071129;28;20025;-50
2022/08/31 11:52:21;;;;;;;2.35;1.23;;;33.10;45.60;;;;;;5069256;28;20020;-50
2022/08/31 11:54:49;;;;;;;3.65;1.20;;;33.50;46.40;;;;;;5071231;28;20062;-49
2022/08/31 11:57:19;;;;;;;5.72;1.10;;;33.60;45.60;;;;;;5071110;28;20044;-48
2022/08/31 11:59:46;;;;;;;3.42;0.98;;;33.80;44.40;;;;;;5071364;28;20512;-48
2022/08/31 12:02:18;;;;;;;2.03;0.85;;;34.00;46.20;;;;;;5070543;28;20035;-51
2022/08/31 12:04:57;;;;;;;1.17;0.90;;;33.70;45.80;;;;;;5071142;28;20033;-50
2022/08/31 12:07:27;;;;;;;3.77;1.10;;;33.50;44.40;;;;;;5071069;28;20103;-48
2022/08/31 12:10:17;;;;;;;1.30;0.90;;;33.20;45.00;;;;;;5070851;28;20286;-48
2022/08/31 12:13:06;;;;;;;1.50;0.80;;;33.00;46.20;;;;;;5070232;28;20025;-48
2022/08/31 12:15:59;;;;;;;0.80;0.80;;;32.70;45.70;;;;;;5069572;28;20017;-48
2022/08/31 12:18:59;;;;;;;1.75;1.00;;;32.00;47.10;;;;;;5070853;28;20373;-50
2022/08/31 12:24:51;;;;;;;1.88;1.05;;;31.50;48.20;;;;;;5070495;28;20137;-51
2022/08/31 12:27:23;;;;;;;1.90;1.10;;;30.90;47.00;;;;;;5070888;28;20120;-50
2022/08/31 12:29:49;;;;;;;2.28;1.30;;;30.20;48.40;;;;;;5070443;28;20025;-48
2022/08/31 12:32:26;;;;;;;5.03;1.20;;;29.50;49.10;;;;;;5069950;28;20055;-50
2022/08/31 12:34:57;;;;;;;1.90;1.10;;;29.20;50.00;;;;;;5069340;28;20108;-47
2022/08/31 12:37:26;;;;;;;2.90;1.08;;;29.00;51.60;;;;;;5070832;28;20381;-47
2022/08/31 12:40:25;;;;;;;3.97;1.02;;;28.80;51.30;;;;;;5069358;28;20021;-47
2022/08/31 12:42:59;;;;;;;5.07;1.33;;;28.70;50.70;;;;;;5046870;28;20431;-48
2022/08/31 12:45:57;;;;;;;2.95;0.80;;;28.70;51.10;;;;;;5070184;28;20082;-49
2022/08/31 12:49:04;;;;;;;2.60;1.20;;;28.80;51.30;;;;;;5070282;28;20028;-50
2022/08/31 12:51:50;;;;;;;2.55;1.00;;;29.10;50.20;;;;;;5069644;28;20130;-48
2022/08/31 12:54:37;;;;;;;3.20;1.65;;;29.20;49.40;;;;;;5070468;28;20043;-47
2022/08/31 12:57:21;;;;;;;4.50;2.38;;;29.30;51.20;;;;;;5069956;28;20012;-48
2022/08/31 13:00:08;;;;;;;12.05;2.78;;;29.20;50.20;;;;;;5068567;28;20029;-50
2022/08/31 13:02:40;;;;;;;1.30;0.90;;;29.20;49.20;;;;;;5067876;28;20032;-49
2022/08/31 13:05:22;;;;;;;7.95;1.55;;;29.20;49.90;;;;;;5069857;28;20649;-48
2022/08/31 13:07:48;;;;;;;3.17;1.02;;;29.30;50.60;;;;;;5069620;28;20040;-46
2022/08/31 13:10:30;;;;;;;1.85;1.10;;;29.40;50.40;;;;;;5069938;28;20055;-47
2022/08/31 13:13:00;;;;;;;4.72;1.27;;;29.00;49.00;;;;;;5068980;28;20032;-48
2022/08/31 13:15:38;;;;;;;3.13;1.60;;;28.60;50.40;;;;;;5069406;28;20035;-48
2022/08/31 13:18:30;;;;;;;4.30;1.10;;;28.50;50.20;;;;;;5069446;28;20354;-46
2022/08/31 13:21:02;;;;;;;3.28;1.80;;;28.30;50.60;;;;;;5066877;28;20040;-47
2022/08/31 13:23:38;;;;;;;4.22;0.95;;;28.50;50.20;;;;;;5068058;28;20394;-47
2022/08/31 13:26:24;;;;;;;2.47;1.00;;;28.60;49.20;;;;;;5069297;28;20024;-46
2022/08/31 13:28:53;;;;;;;2.65;1.02;;;28.30;49.60;;;;;;5069505;28;20036;-50